sensor_id;sensor_type;location;lat;lon;timestamp;pressure;altitude;pressure_sealevel;temperature;humidity
25759;BME280;13604;52.496;13.456;2023-09-19T00:00:00;100179.03;;;16.37;nan
25759;BME280;13604;52.496;13.456;2023-09-19T00:02:34;100177.28;;;16.36;100.00
25759;BME280;13604;52.496;13.456;2023-09-19T00:05:01;100183.41;;;16.37;100.00
25759;BME280;13604;52.496;13.456;2023-09-19T00:07:28;100186.03;;;16.35;100.00
25759;BME280;13604;52.496;13.456;2023-09-19T00:09:53;100182.53;;;16.38;100.00
25759;BME280;13604;52.496;13.456;2023-09-19T00:12:20;100147.19;;;16.13;100.00
25759;BME280;13604;52.496;13.456;2023-09-19T00:14:45;100163.88;;;16.16;100.00
25759;BME280;13604;52.496;13.456;2023-09-19T00:17:10;100163.84;;;16.13;100.00
25759;BME280;13604;52.496;13.456;2023-09-19T00:19:36;100169.19;;;16.19;100.00
25759;BME280;13604;52.496;13.456;2023-09-19T00:22:01;100155.00;;;16.07;100.00
25759;BME280;13604;52.496;13.456;2023-09-19T00:24:27;100186.72;;;16.21;100.00
25759;BME280;13604;52.496;13.456;2023-09-19T00:26:56;100179.59;;;16.13;100.00
25759;BME280;13604;52.496;13.456;2023-09-19T00:29:25;100154.13;;;16.08;100.00
25759;BME280;13604;52.496;13.456;2023-09-19T00:31:54;100178.75;;;16.16;100.00
25759;BME280;13604;52.496;13.456;2023-09-19T00:34:19;100183.97;;;16.13;100.00
25759;BME280;13604;52.496;13.456;2023-09-19T00:36:45;100170.72;;;16.02;100.00
25759;BME280;13604;52.496;13.456;2023-09-19T00:39:10;100181.25;;;16.04;100.00
25759;BME280;13604;52.496;13.456;2023-09-19T00:41:36;100176.88;;;16.06;100.00
25759;BME280;13604;52.496;13.456;2023-09-19T00:44:02;100164.44;;;15.92;100.00
25759;BME280;13604;52.496;13.456;2023-09-19T00:46:29;100175.00;;;15.98;100.00
25759;BME280;13604;52.496;13.456;2023-09-19T00:48:54;100179.41;;;15.99;100.00
25759;BME280;13604;52.496;13.456;2023-09-19T00:51:21;100166.13;;;15.89;100.00
25759;BME280;13604;52.496;13.456;2023-09-19T00:53:47;100174.03;;;15.92;100.00
25759;BME280;13604;52.496;13.456;2023-09-19T00:56:14;100173.09;;;15.87;100.00
25759;BME280;13604;52.496;13.456;2023-09-19T00:58:40;100142.19;;;15.70;100.00
25759;BME280;13604;52.496;13.456;2023-09-19T01:01:05;100171.28;;;15.81;100.00
25759;BME280;13604;52.496;13.456;2023-09-19T01:03:33;100175.69;;;15.85;100.00
25759;BME280;13604;52.496;13.456;2023-09-19T01:05:59;100181.94;;;15.93;100.00
25759;BME280;13604;52.496;13.456;2023-09-19T01:08:25;100155.50;;;15.79;100.00
25759;BME280;13604;52.496;13.456;2023-09-19T01:11:01;100177.47;;;15.86;100.00
25759;BME280;13604;52.496;13.456;2023-09-19T01:13:35;100140.47;;;15.71;100.00
25759;BME280;13604;52.496;13.456;2023-09-19T01:18:55;100152.88;;;15.79;100.00
25759;BME280;13604;52.496;13.456;2023-09-19T01:21:29;100185.50;;;15.97;100.00
25759;BME280;13604;52.496;13.456;2023-09-19T01:24:22;100184.53;;;15.90;100.00
25759;BME280;13604;52.496;13.456;2023-09-19T01:27:38;100189.81;;;15.92;100.00
25759;BME280;13604;52.496;13.456;2023-09-19T01:30:20;100188.09;;;15.92;100.00
25759;BME280;13604;52.496;13.456;2023-09-19T01:32:49;100151.13;;;15.80;100.00
25759;BME280;13604;52.496;13.456;2023-09-19T01:35:17;100174.94;;;15.92;100.00
25759;BME280;13604;52.496;13.456;2023-09-19T01:37:43;100172.38;;;15.97;100.00
25759;BME280;13604;52.496;13.456;2023-09-19T01:40:10;100177.69;;;16.01;100.00
25759;BME280;13604;52.496;13.456;2023-09-19T01:46:12;100150.38;;;15.90;100.00
25759;BME280;13604;52.496;13.456;2023-09-19T01:51:46;100185.81;;;16.22;100.00
25759;BME280;13604;52.496;13.456;2023-09-19T01:54:18;100185.03;;;16.26;100.00
25759;BME280;13604;52.496;13.456;2023-09-19T01:56:52;100172.63;;;16.14;100.00
25759;BME280;13604;52.496;13.456;2023-09-19T01:59:25;100153.97;;;15.97;100.00
25759;BME280;13604;52.496;13.456;2023-09-19T02:01:54;100169.88;;;16.06;100.00
25759;BME280;13604;52.496;13.456;2023-09-19T02:04:20;100178.47;;;15.94;100.00
25759;BME280;13604;52.496;13.456;2023-09-19T02:06:45;100175.75;;;15.88;100.00
25759;BME280;13604;52.496;13.456;2023-09-19T02:09:13;100198.59;;;15.94;100.00
25759;BME280;13604;52.496;13.456;2023-09-19T02:11:39;100193.31;;;15.91;100.00
25759;BME280;13604;52.496;13.456;2023-09-19T02:14:04;100195.81;;;15.83;100.00
25759;BME280;13604;52.496;13.456;2023-09-19T02:16:33;100191.25;;;15.73;100.00
25759;BME280;13604;52.496;13.456;2023-09-19T02:18:59;100177.97;;;15.63;100.00
25759;BME280;13604;52.496;13.456;2023-09-19T02:21:25;100193.81;;;15.68;100.00
25759;BME280;13604;52.496;13.456;2023-09-19T02:23:50;100174.28;;;15.51;100.00
25759;BME280;13604;52.496;13.456;2023-09-19T02:26:16;100215.69;;;15.69;100.00
25759;BME280;13604;52.496;13.456;2023-09-19T02:28:44;100192.63;;;15.49;100.00
25759;BME280;13604;52.496;13.456;2023-09-19T02:31:11;100202.28;;;15.52;100.00
25759;BME280;13604;52.496;13.456;2023-09-19T02:33:36;100226.84;;;15.55;100.00
25759;BME280;13604;52.496;13.456;2023-09-19T02:36:02;100216.34;;;15.55;100.00
25759;BME280;13604;52.496;13.456;2023-09-19T02:38:30;100201.13;;;15.34;100.00
25759;BME280;13604;52.496;13.456;2023-09-19T02:40:55;100191.56;;;15.36;100.00
25759;BME280;13604;52.496;13.456;2023-09-19T02:43:21;100208.31;;;15.44;100.00
25759;BME280;13604;52.496;13.456;2023-09-19T02:45:47;100209.94;;;15.38;100.00
25759;BME280;13604;52.496;13.456;2023-09-19T02:48:14;100200.16;;;15.29;100.00
25759;BME280;13604;52.496;13.456;2023-09-19T02:50:40;100233.66;;;15.45;100.00
25759;BME280;13604;52.496;13.456;2023-09-19T02:53:05;100231.84;;;15.40;100.00
25759;BME280;13604;52.496;13.456;2023-09-19T02:55:32;100230.09;;;15.40;100.00
25759;BME280;13604;52.496;13.456;2023-09-19T02:57:57;100226.53;;;15.37;100.00
25759;BME280;13604;52.496;13.456;2023-09-19T03:00:23;100204.50;;;15.27;100.00
25759;BME280;13604;52.496;13.456;2023-09-19T03:02:49;100237.22;;;15.49;100.00
25759;BME280;13604;52.496;13.456;2023-09-19T03:05:15;100214.41;;;15.43;100.00
25759;BME280;13604;52.496;13.456;2023-09-19T03:07:40;100215.19;;;15.38;100.00
25759;BME280;13604;52.496;13.456;2023-09-19T03:10:08;100234.72;;;15.55;100.00
25759;BME280;13604;52.496;13.456;2023-09-19T03:12:34;100235.53;;;15.51;100.00
25759;BME280;13604;52.496;13.456;2023-09-19T03:14:59;100244.41;;;15.59;100.00
25759;BME280;13604;52.496;13.456;2023-09-19T03:17:25;100219.00;;;15.57;100.00
25759;BME280;13604;52.496;13.456;2023-09-19T03:19:50;100222.53;;;15.60;100.00
25759;BME280;13604;52.496;13.456;2023-09-19T03:22:15;100204.16;;;15.60;100.00
25759;BME280;13604;52.496;13.456;2023-09-19T03:24:41;100225.34;;;15.70;100.00
25759;BME280;13604;52.496;13.456;2023-09-19T03:27:11;100250.75;;;15.74;100.00
25759;BME280;13604;52.496;13.456;2023-09-19T03:29:41;100239.31;;;15.69;100.00
25759;BME280;13604;52.496;13.456;2023-09-19T03:32:06;100260.59;;;15.84;100.00
25759;BME280;13604;52.496;13.456;2023-09-19T03:34:32;100265.78;;;15.79;100.00
25759;BME280;13604;52.496;13.456;2023-09-19T03:36:57;100231.25;;;15.56;100.00
25759;BME280;13604;52.496;13.456;2023-09-19T03:39:22;100249.72;;;15.62;100.00
25759;BME280;13604;52.496;13.456;2023-09-19T03:41:48;100255.84;;;15.63;100.00
25759;BME280;13604;52.496;13.456;2023-09-19T03:44:13;100262.06;;;15.68;100.00
25759;BME280;13604;52.496;13.456;2023-09-19T03:46:38;100260.38;;;15.73;100.00
25759;BME280;13604;52.496;13.456;2023-09-19T03:49:03;100270.16;;;15.79;100.00
25759;BME280;13604;52.496;13.456;2023-09-19T03:51:29;100269.06;;;15.68;100.00
25759;BME280;13604;52.496;13.456;2023-09-19T03:53:54;100273.53;;;15.75;100.00
25759;BME280;13604;52.496;13.456;2023-09-19T03:56:20;100269.06;;;15.68;100.00
25759;BME280;13604;52.496;13.456;2023-09-19T03:58:45;100276.97;;;15.72;100.00
25759;BME280;13604;52.496;13.456;2023-09-19T04:01:10;100274.22;;;15.63;100.00
25759;BME280;13604;52.496;13.456;2023-09-19T04:03:36;100289.16;;;15.67;100.00
25759;BME280;13604;52.496;13.456;2023-09-19T04:06:19;100267.84;;;15.49;100.00
25759;BME280;13604;52.496;13.456;2023-09-19T04:08:45;100276.59;;;15.49;100.00
25759;BME280;13604;52.496;13.456;2023-09-19T04:11:12;100267.75;;;15.44;100.00
25759;BME280;13604;52.496;13.456;2023-09-19T04:13:37;100271.44;;;15.55;100.00
25759;BME280;13604;52.496;13.456;2023-09-19T04:16:03;100286.50;;;15.65;100.00
25759;BME280;13604;52.496;13.456;2023-09-19T04:18:35;100261.78;;;15.51;100.00
25759;BME280;13604;52.496;13.456;2023-09-19T04:21:03;100280.31;;;15.62;100.00
25759;BME280;13604;52.496;13.456;2023-09-19T04:23:29;100274.13;;;15.58;100.00
25759;BME280;13604;52.496;13.456;2023-09-19T04:25:54;100268.78;;;15.52;100.00
25759;BME280;13604;52.496;13.456;2023-09-19T04:28:20;100293.38;;;15.59;100.00
25759;BME280;13604;52.496;13.456;2023-09-19T04:30:45;100297.88;;;15.64;100.00
25759;BME280;13604;52.496;13.456;2023-09-19T04:33:10;100282.78;;;15.51;100.00
25759;BME280;13604;52.496;13.456;2023-09-19T04:35:36;100288.88;;;15.52;100.00
25759;BME280;13604;52.496;13.456;2023-09-19T04:38:04;100286.25;;;15.50;100.00
25759;BME280;13604;52.496;13.456;2023-09-19T04:40:31;100308.38;;;15.64;100.00
25759;BME280;13604;52.496;13.456;2023-09-19T04:42:58;100297.69;;;15.55;100.00
25759;BME280;13604;52.496;13.456;2023-09-19T04:45:27;100307.34;;;15.56;100.00
25759;BME280;13604;52.496;13.456;2023-09-19T04:47:53;100323.13;;;15.58;100.00
25759;BME280;13604;52.496;13.456;2023-09-19T04:50:19;100326.59;;;15.57;100.00
25759;BME280;13604;52.496;13.456;2023-09-19T04:52:49;100328.25;;;15.52;100.00
25759;BME280;13604;52.496;13.456;2023-09-19T04:55:17;100331.72;;;15.51;100.00
25759;BME280;13604;52.496;13.456;2023-09-19T04:57:51;100321.19;;;15.49;100.00
25759;BME280;13604;52.496;13.456;2023-09-19T05:00:21;100317.41;;;15.32;100.00
25759;BME280;13604;52.496;13.456;2023-09-19T05:02:50;100323.56;;;15.35;100.00
25759;BME280;13604;52.496;13.456;2023-09-19T05:05:16;100326.09;;;15.31;100.00
25759;BME280;13604;52.496;13.456;2023-09-19T05:07:45;100349.09;;;15.44;100.00
25759;BME280;13604;52.496;13.456;2023-09-19T05:10:11;100348.28;;;15.46;100.00
25759;BME280;13604;52.496;13.456;2023-09-19T05:12:39;100348.16;;;15.40;100.00
25759;BME280;13604;52.496;13.456;2023-09-19T05:15:05;100341.13;;;15.38;100.00
25759;BME280;13604;52.496;13.456;2023-09-19T05:17:32;100317.31;;;15.27;100.00
25759;BME280;13604;52.496;13.456;2023-09-19T05:19:58;100344.72;;;15.43;100.00
25759;BME280;13604;52.496;13.456;2023-09-19T05:22:26;100352.59;;;15.43;100.00
25759;BME280;13604;52.496;13.456;2023-09-19T05:24:51;100370.22;;;15.50;100.00
25759;BME280;13604;52.496;13.456;2023-09-19T05:27:18;100356.78;;;15.33;100.00
25759;BME280;13604;52.496;13.456;2023-09-19T05:29:46;100356.78;;;15.33;100.00
25759;BME280;13604;52.496;13.456;2023-09-19T05:32:12;100364.88;;;15.45;100.00
25759;BME280;13604;52.496;13.456;2023-09-19T05:34:37;100358.47;;;15.31;100.00
25759;BME280;13604;52.496;13.456;2023-09-19T05:37:04;100372.63;;;15.38;100.00
25759;BME280;13604;52.496;13.456;2023-09-19T05:39:32;100385.06;;;15.48;100.00
25759;BME280;13604;52.496;13.456;2023-09-19T05:41:57;100364.53;;;15.27;100.00
25759;BME280;13604;52.496;13.456;2023-09-19T05:44:23;100388.34;;;15.39;100.00
25759;BME280;13604;52.496;13.456;2023-09-19T05:46:48;100386.41;;;15.29;100.00
25759;BME280;13604;52.496;13.456;2023-09-19T05:49:14;100388.16;;;15.28;100.00
25759;BME280;13604;52.496;13.456;2023-09-19T05:51:39;100386.25;;;15.20;100.00
25759;BME280;13604;52.496;13.456;2023-09-19T05:54:05;100407.50;;;15.34;100.00
25759;BME280;13604;52.496;13.456;2023-09-19T05:56:30;100387.97;;;15.19;100.00
25759;BME280;13604;52.496;13.456;2023-09-19T05:58:56;100398.53;;;15.22;100.00
25759;BME280;13604;52.496;13.456;2023-09-19T06:01:21;100391.53;;;15.21;100.00
25759;BME280;13604;52.496;13.456;2023-09-19T06:03:47;100397.81;;;15.30;100.00
25759;BME280;13604;52.496;13.456;2023-09-19T06:06:12;100417.13;;;15.33;100.00
25759;BME280;13604;52.496;13.456;2023-09-19T06:08:38;100424.28;;;15.42;100.00
25759;BME280;13604;52.496;13.456;2023-09-19T06:11:03;100426.09;;;15.44;99.70
25759;BME280;13604;52.496;13.456;2023-09-19T06:13:32;100446.28;;;15.49;100.00
25759;BME280;13604;52.496;13.456;2023-09-19T06:15:59;100443.69;;;15.50;99.82
25759;BME280;13604;52.496;13.456;2023-09-19T06:18:28;100430.34;;;15.38;99.29
25759;BME280;13604;52.496;13.456;2023-09-19T06:20:54;100434.69;;;15.37;99.45
25759;BME280;13604;52.496;13.456;2023-09-19T06:23:20;100447.16;;;15.49;99.00
25759;BME280;13604;52.496;13.456;2023-09-19T06:25:46;100440.16;;;15.48;99.17
25759;BME280;13604;52.496;13.456;2023-09-19T06:28:11;100430.72;;;15.56;97.90
25759;BME280;13604;52.496;13.456;2023-09-19T06:30:38;100455.50;;;15.71;96.75
25759;BME280;13604;52.496;13.456;2023-09-19T06:33:05;100453.38;;;15.95;95.17
25759;BME280;13604;52.496;13.456;2023-09-19T06:35:33;100461.25;;;15.97;95.50
25759;BME280;13604;52.496;13.456;2023-09-19T06:37:58;100449.13;;;16.05;94.36
25759;BME280;13604;52.496;13.456;2023-09-19T06:40:23;100464.31;;;16.20;93.41
25759;BME280;13604;52.496;13.456;2023-09-19T06:42:53;100468.69;;;16.21;92.76
25759;BME280;13604;52.496;13.456;2023-09-19T06:45:19;100467.88;;;16.24;93.24
25759;BME280;13604;52.496;13.456;2023-09-19T06:47:49;100471.06;;;16.58;91.55
25759;BME280;13604;52.496;13.456;2023-09-19T06:50:15;100466.22;;;16.84;88.44
25759;BME280;13604;52.496;13.456;2023-09-19T06:52:41;100485.84;;;17.04;87.53
25759;BME280;13604;52.496;13.456;2023-09-19T06:55:06;100457.75;;;17.03;86.20
25759;BME280;13604;52.496;13.456;2023-09-19T06:57:32;100485.22;;;17.21;84.92
25759;BME280;13604;52.496;13.456;2023-09-19T06:59:57;100482.75;;;17.35;84.17
25759;BME280;13604;52.496;13.456;2023-09-19T07:02:22;100478.59;;;17.51;84.43
25759;BME280;13604;52.496;13.456;2023-09-19T07:04:48;100469.44;;;17.91;83.21
25759;BME280;13604;52.496;13.456;2023-09-19T07:07:14;100448.72;;;18.31;79.99
25759;BME280;13604;52.496;13.456;2023-09-19T07:09:40;100471.41;;;19.24;74.25
25759;BME280;13604;52.496;13.456;2023-09-19T07:12:05;100472.19;;;19.09;73.85
25759;BME280;13604;52.496;13.456;2023-09-19T07:14:30;100478.63;;;19.67;71.89
25759;BME280;13604;52.496;13.456;2023-09-19T07:16:56;100487.59;;;20.08;68.92
25759;BME280;13604;52.496;13.456;2023-09-19T07:19:21;100484.97;;;20.49;65.46
25759;BME280;13604;52.496;13.456;2023-09-19T07:21:46;100486.78;;;20.69;64.29
25759;BME280;13604;52.496;13.456;2023-09-19T07:24:12;100499.09;;;20.30;65.43
25759;BME280;13604;52.496;13.456;2023-09-19T07:26:38;100493.78;;;20.39;64.81
25759;BME280;13604;52.496;13.456;2023-09-19T07:29:05;100503.53;;;20.92;63.34
25759;BME280;13604;52.496;13.456;2023-09-19T07:31:31;100511.44;;;21.06;61.05
25759;BME280;13604;52.496;13.456;2023-09-19T07:33:57;100483.22;;;20.48;61.37
25759;BME280;13604;52.496;13.456;2023-09-19T07:36:22;100515.84;;;20.49;62.00
25759;BME280;13604;52.496;13.456;2023-09-19T07:38:49;100524.56;;;20.01;62.96
25759;BME280;13604;52.496;13.456;2023-09-19T07:41:14;100494.56;;;19.81;63.36
25759;BME280;13604;52.496;13.456;2023-09-19T07:43:39;100491.97;;;20.04;64.10
25759;BME280;13604;52.496;13.456;2023-09-19T07:46:08;100507.03;;;20.59;62.03
25759;BME280;13604;52.496;13.456;2023-09-19T07:48:37;100523.81;;;20.63;60.87
25759;BME280;13604;52.496;13.456;2023-09-19T07:51:04;100490.22;;;20.06;61.79
25759;BME280;13604;52.496;13.456;2023-09-19T07:53:30;100536.94;;;20.10;62.54
25759;BME280;13604;52.496;13.456;2023-09-19T07:56:02;100537.72;;;19.84;62.94
25759;BME280;13604;52.496;13.456;2023-09-19T07:58:28;100543.06;;;19.92;60.89
25759;BME280;13604;52.496;13.456;2023-09-19T08:00:54;100530.75;;;20.11;59.60
25759;BME280;13604;52.496;13.456;2023-09-19T08:03:19;100551.13;;;20.54;58.68
25759;BME280;13604;52.496;13.456;2023-09-19T08:05:44;100533.44;;;20.19;58.82
25759;BME280;13604;52.496;13.456;2023-09-19T08:08:10;100539.63;;;20.41;58.29
25759;BME280;13604;52.496;13.456;2023-09-19T08:10:38;100546.75;;;20.70;57.67
25759;BME280;13604;52.496;13.456;2023-09-19T08:13:07;100530.84;;;20.54;57.82
25759;BME280;13604;52.496;13.456;2023-09-19T08:15:36;100541.41;;;20.44;58.53
25759;BME280;13604;52.496;13.456;2023-09-19T08:18:09;100523.81;;;21.12;55.38
25759;BME280;13604;52.496;13.456;2023-09-19T08:20:35;100540.34;;;21.94;51.98
25759;BME280;13604;52.496;13.456;2023-09-19T08:23:03;100527.22;;;21.65;52.65
25759;BME280;13604;52.496;13.456;2023-09-19T08:25:28;100543.22;;;20.80;54.34
25759;BME280;13604;52.496;13.456;2023-09-19T08:27:54;100522.88;;;20.36;56.52
25759;BME280;13604;52.496;13.456;2023-09-19T08:30:24;100551.91;;;20.10;57.21
25759;BME280;13604;52.496;13.456;2023-09-19T08:32:59;100558.91;;;19.92;57.79
25759;BME280;13604;52.496;13.456;2023-09-19T08:35:24;100558.69;;;19.55;58.75
25759;BME280;13604;52.496;13.456;2023-09-19T08:37:50;100544.75;;;19.78;58.72
25759;BME280;13604;52.496;13.456;2023-09-19T08:40:17;100567.75;;;20.10;57.83
25759;BME280;13604;52.496;13.456;2023-09-19T08:42:49;100555.56;;;20.90;55.35
25759;BME280;13604;52.496;13.456;2023-09-19T08:45:15;100579.91;;;22.45;50.37
25759;BME280;13604;52.496;13.456;2023-09-19T08:47:48;100533.25;;;23.23;47.71
25759;BME280;13604;52.496;13.456;2023-09-19T08:50:28;100550.66;;;22.47;48.72
25759;BME280;13604;52.496;13.456;2023-09-19T08:53:01;100551.91;;;23.14;47.71
25759;BME280;13604;52.496;13.456;2023-09-19T08:55:28;100566.88;;;24.06;45.46
25759;BME280;13604;52.496;13.456;2023-09-19T08:58:03;100575.41;;;23.56;45.28
25759;BME280;13604;52.496;13.456;2023-09-19T09:00:30;100572.25;;;24.02;44.31
25759;BME280;13604;52.496;13.456;2023-09-19T09:02:56;100575.72;;;24.05;44.25
25759;BME280;13604;52.496;13.456;2023-09-19T09:05:23;100582.41;;;23.64;45.21
25759;BME280;13604;52.496;13.456;2023-09-19T09:07:49;100588.66;;;23.60;44.66
25759;BME280;13604;52.496;13.456;2023-09-19T09:10:20;100574.16;;;22.97;45.44
25759;BME280;13604;52.496;13.456;2023-09-19T09:12:52;100579.81;;;22.53;46.83
25759;BME280;13604;52.496;13.456;2023-09-19T09:15:21;100577.88;;;23.73;43.52
25759;BME280;13604;52.496;13.456;2023-09-19T09:17:48;100583.16;;;25.03;41.32
25759;BME280;13604;52.496;13.456;2023-09-19T09:20:15;100575.91;;;25.11;40.72
25759;BME280;13604;52.496;13.456;2023-09-19T09:22:53;100594.63;;;23.81;43.55
25759;BME280;13604;52.496;13.456;2023-09-19T09:25:19;100600.69;;;25.68;41.15
25759;BME280;13604;52.496;13.456;2023-09-19T09:27:58;100591.91;;;26.86;37.79
25759;BME280;13604;52.496;13.456;2023-09-19T09:30:37;100599.97;;;26.85;37.85
25759;BME280;13604;52.496;13.456;2023-09-19T09:33:10;100581.44;;;28.10;35.52
25759;BME280;13604;52.496;13.456;2023-09-19T09:35:36;100598.09;;;27.23;35.70
25759;BME280;13604;52.496;13.456;2023-09-19T09:38:04;100611.97;;;26.26;37.18
25759;BME280;13604;52.496;13.456;2023-09-19T09:40:46;100594.22;;;27.36;35.90
25759;BME280;13604;52.496;13.456;2023-09-19T09:43:30;100596.53;;;27.81;34.70
25759;BME280;13604;52.496;13.456;2023-09-19T09:46:10;100587.88;;;28.34;34.37
25759;BME280;13604;52.496;13.456;2023-09-19T09:49:03;100585.94;;;28.68;32.87
25759;BME280;13604;52.496;13.456;2023-09-19T09:51:58;100178.16;;;25.06;34.24
25759;BME280;13604;52.496;13.456;2023-09-19T09:54:26;100607.94;;;28.49;33.30
25759;BME280;13604;52.496;13.456;2023-09-19T09:57:00;100612.00;;;28.62;32.50
25759;BME280;13604;52.496;13.456;2023-09-19T09:59:51;100603.66;;;28.72;32.20
25759;BME280;13604;52.496;13.456;2023-09-19T10:02:25;100581.25;;;30.71;29.71
25759;BME280;13604;52.496;13.456;2023-09-19T10:04:54;100612.16;;;30.37;29.52
25759;BME280;13604;52.496;13.456;2023-09-19T10:07:41;100606.88;;;28.25;32.34
25759;BME280;13604;52.496;13.456;2023-09-19T10:10:13;100606.16;;;28.48;31.32
25759;BME280;13604;52.496;13.456;2023-09-19T10:12:43;100624.56;;;29.42;29.25
25759;BME280;13604;52.496;13.456;2023-09-19T10:15:11;100622.06;;;29.88;28.18
25759;BME280;13604;52.496;13.456;2023-09-19T10:17:42;100612.34;;;31.21;27.71
25759;BME280;13604;52.496;13.456;2023-09-19T10:20:09;100636.81;;;31.97;25.94
25759;BME280;13604;52.496;13.456;2023-09-19T10:22:48;100610.19;;;33.04;26.20
25759;BME280;13604;52.496;13.456;2023-09-19T10:25:26;100607.84;;;33.50;25.26
25759;BME280;13604;52.496;13.456;2023-09-19T10:27:54;100594.50;;;32.20;25.03
25759;BME280;13604;52.496;13.456;2023-09-19T10:30:22;100612.41;;;30.29;27.53
25759;BME280;13604;52.496;13.456;2023-09-19T10:33:01;100611.25;;;30.82;27.00
25759;BME280;13604;52.496;13.456;2023-09-19T10:35:27;100606.72;;;31.05;26.82
25759;BME280;13604;52.496;13.456;2023-09-19T10:37:55;100596.50;;;31.56;26.24
25759;BME280;13604;52.496;13.456;2023-09-19T10:40:22;100601.03;;;33.93;24.50
25759;BME280;13604;52.496;13.456;2023-09-19T10:42:52;100595.31;;;35.99;22.79
25759;BME280;13604;52.496;13.456;2023-09-19T10:45:19;100604.03;;;36.04;21.64
25759;BME280;13604;52.496;13.456;2023-09-19T10:47:45;100599.28;;;33.24;23.84
25759;BME280;13604;52.496;13.456;2023-09-19T10:50:19;100581.97;;;32.38;24.70
25759;BME280;13604;52.496;13.456;2023-09-19T10:52:47;100604.84;;;32.29;24.62
25759;BME280;13604;52.496;13.456;2023-09-19T10:55:19;100606.97;;;32.78;25.62
25759;BME280;13604;52.496;13.456;2023-09-19T10:57:47;100594.31;;;32.42;24.21
25759;BME280;13604;52.496;13.456;2023-09-19T11:00:13;100604.47;;;32.37;24.30
25759;BME280;13604;52.496;13.456;2023-09-19T11:06:00;100596.81;;;30.63;26.05
25759;BME280;13604;52.496;13.456;2023-09-19T11:08:26;100589.75;;;29.66;26.14
25759;BME280;13604;52.496;13.456;2023-09-19T11:10:52;100600.44;;;28.31;28.50
25759;BME280;13604;52.496;13.456;2023-09-19T11:13:27;100598.06;;;28.79;28.01
25759;BME280;13604;52.496;13.456;2023-09-19T11:18:53;100604.41;;;31.18;25.01
25759;BME280;13604;52.496;13.456;2023-09-19T11:27:09;100604.50;;;28.74;27.30
25759;BME280;13604;52.496;13.456;2023-09-19T11:29:34;100607.19;;;30.03;25.81
25759;BME280;13604;52.496;13.456;2023-09-19T11:32:02;100589.97;;;30.54;25.49
25759;BME280;13604;52.496;13.456;2023-09-19T11:34:39;100627.38;;;30.82;24.81
25759;BME280;13604;52.496;13.456;2023-09-19T11:39:38;100622.06;;;27.27;28.68
25759;BME280;13604;52.496;13.456;2023-09-19T11:45:06;100612.97;;;25.28;31.58
25759;BME280;13604;52.496;13.456;2023-09-19T11:47:32;100618.13;;;24.83;32.93
25759;BME280;13604;52.496;13.456;2023-09-19T11:50:01;100585.19;;;25.85;31.38
25759;BME280;13604;52.496;13.456;2023-09-19T11:52:27;100590.09;;;26.08;31.54
25759;BME280;13604;52.496;13.456;2023-09-19T11:55:00;100603.13;;;25.79;32.16
25759;BME280;13604;52.496;13.456;2023-09-19T11:57:27;100623.53;;;25.81;31.82
25759;BME280;13604;52.496;13.456;2023-09-19T11:59:55;100606.53;;;26.71;30.95
25759;BME280;13604;52.496;13.456;2023-09-19T12:02:39;100627.72;;;26.77;30.61
25759;BME280;13604;52.496;13.456;2023-09-19T12:05:07;100598.63;;;26.67;29.41
25759;BME280;13604;52.496;13.456;2023-09-19T12:07:42;100618.09;;;27.77;29.12
25759;BME280;13604;52.496;13.456;2023-09-19T12:10:07;100594.88;;;28.67;27.39
25759;BME280;13604;52.496;13.456;2023-09-19T12:12:36;100618.38;;;28.87;26.93
25759;BME280;13604;52.496;13.456;2023-09-19T12:15:02;100598.09;;;28.50;26.85
25759;BME280;13604;52.496;13.456;2023-09-19T12:17:41;100628.59;;;28.14;27.62
25759;BME280;13604;52.496;13.456;2023-09-19T12:20:08;100609.53;;;26.93;28.68
25759;BME280;13604;52.496;13.456;2023-09-19T12:22:43;100604.72;;;26.72;29.35
25759;BME280;13604;52.496;13.456;2023-09-19T12:25:09;100595.88;;;26.29;29.70
25759;BME280;13604;52.496;13.456;2023-09-19T12:27:49;100607.06;;;26.06;30.57
25759;BME280;13604;52.496;13.456;2023-09-19T12:30:18;100614.09;;;26.90;29.90
25759;BME280;13604;52.496;13.456;2023-09-19T12:32:45;100603.97;;;28.03;28.61
25759;BME280;13604;52.496;13.456;2023-09-19T12:35:33;100604.25;;;28.23;27.15
25759;BME280;13604;52.496;13.456;2023-09-19T12:38:02;100603.84;;;28.94;26.19
25759;BME280;13604;52.496;13.456;2023-09-19T12:40:29;100584.50;;;29.11;25.75
25759;BME280;13604;52.496;13.456;2023-09-19T12:42:59;100593.38;;;27.67;27.29
25759;BME280;13604;52.496;13.456;2023-09-19T12:45:25;100593.75;;;28.16;27.65
25759;BME280;13604;52.496;13.456;2023-09-19T12:53:36;100592.88;;;27.52;27.71
25759;BME280;13604;52.496;13.456;2023-09-19T12:56:12;100582.84;;;27.26;28.60
25759;BME280;13604;52.496;13.456;2023-09-19T12:58:55;100582.28;;;27.81;27.69
25759;BME280;13604;52.496;13.456;2023-09-19T13:01:25;100594.44;;;28.52;26.44
25759;BME280;13604;52.496;13.456;2023-09-19T13:04:19;100621.06;;;26.17;29.32
25759;BME280;13604;52.496;13.456;2023-09-19T13:06:46;100617.00;;;26.40;29.73
25759;BME280;13604;52.496;13.456;2023-09-19T13:09:14;100598.72;;;25.78;30.24
25759;BME280;13604;52.496;13.456;2023-09-19T13:11:40;100611.84;;;24.87;31.95
25759;BME280;13604;52.496;13.456;2023-09-19T13:14:24;100613.50;;;24.94;32.08